createdAt,value
2022-09-02T00:01:01.785Z,30.63
2022-09-02T00:03:31.591Z,30.55
2022-09-02T00:05:58.569Z,30.34
2022-09-02T00:08:25.158Z,30.41
2022-09-02T00:10:52.361Z,30.94
2022-09-02T00:13:20.731Z,30.45
2022-09-02T00:15:49.049Z,30.73
2022-09-02T00:18:18.088Z,30.75
2022-09-02T00:20:47.480Z,30.68
2022-09-02T00:23:16.315Z,31.03
2022-09-02T00:25:45.344Z,30.88
2022-09-02T00:28:14.943Z,31.02
2022-09-02T00:30:42.676Z,31.13
2022-09-02T00:33:09.667Z,30.97
2022-09-02T00:35:36.505Z,30.97
2022-09-02T00:38:03.647Z,31.03
2022-09-02T00:40:30.810Z,31.13
2022-09-02T00:42:57.501Z,31.17
2022-09-02T00:45:24.772Z,30.74
2022-09-02T00:47:51.901Z,31.15
2022-09-02T00:50:24.290Z,31.21
2022-09-02T00:52:56.599Z,31.11
2022-09-02T00:55:27.677Z,31.63
2022-09-02T00:57:59.708Z,31.53
2022-09-02T01:00:35.637Z,31.26
2022-09-02T01:03:06.584Z,31.32
2022-09-02T01:05:38.618Z,31.32
2022-09-02T01:08:09.648Z,31.27
2022-09-02T01:10:36.851Z,31.05
2022-09-02T01:13:10.980Z,31.69
2022-09-02T01:15:43.495Z,31.38
2022-09-02T01:18:19.236Z,31.55
2022-09-02T01:20:46.447Z,31.40
2022-09-02T01:23:16.304Z,31.30
2022-09-02T01:25:43.107Z,31.04
2022-09-02T01:28:13.480Z,31.60
2022-09-02T01:30:45.496Z,31.57
2022-09-02T01:33:12.197Z,31.69
2022-09-02T01:35:39.004Z,31.62
2022-09-02T01:38:05.735Z,31.76
2022-09-02T01:40:32.589Z,31.65
2022-09-02T01:43:07.783Z,31.95
2022-09-02T01:45:36.574Z,31.71
2022-09-02T01:48:04.104Z,31.89
2022-09-02T01:50:31.585Z,31.48
2022-09-02T01:53:01.655Z,31.72
2022-09-02T01:55:28.151Z,31.66
2022-09-02T01:57:54.811Z,31.77
2022-09-02T02:00:22.128Z,31.65
2022-09-02T02:02:48.672Z,31.76
2022-09-02T02:05:15.888Z,31.69
2022-09-02T02:07:43.671Z,31.95
2022-09-02T02:10:11.666Z,31.77
2022-09-02T02:12:39.500Z,31.86
2022-09-02T02:15:08.699Z,31.82
2022-09-02T02:17:35.223Z,31.96
2022-09-02T02:20:01.785Z,31.83
2022-09-02T02:22:28.364Z,32.12
2022-09-02T02:24:54.940Z,32.22
2022-09-02T02:27:21.460Z,32.06
2022-09-02T02:29:48.018Z,31.98
2022-09-02T02:32:14.806Z,32.13
2022-09-02T02:34:41.298Z,32.28
2022-09-02T02:37:07.848Z,32.21
2022-09-02T02:39:34.324Z,32.10
2022-09-02T02:42:00.833Z,31.94
2022-09-02T02:44:29.359Z,31.91
2022-09-02T02:46:55.923Z,31.95
2022-09-02T02:49:23.223Z,31.95
2022-09-02T02:51:49.917Z,31.75
2022-09-02T02:54:16.597Z,31.94
2022-09-02T02:56:43.160Z,31.91
2022-09-02T02:59:09.659Z,31.71
2022-09-02T03:01:36.442Z,31.87
2022-09-02T03:04:03.397Z,31.80
2022-09-02T03:06:30.024Z,31.93
2022-09-02T03:08:56.967Z,31.59
2022-09-02T03:11:28.458Z,31.94
2022-09-02T03:13:55.663Z,31.92
2022-09-02T03:16:22.555Z,31.77
2022-09-02T03:18:50.620Z,31.86
2022-09-02T03:21:18.628Z,31.98
2022-09-02T03:23:46.419Z,31.96
2022-09-02T03:26:18.972Z,32.04
2022-09-02T03:28:47.534Z,31.44
2022-09-02T03:31:17.923Z,31.90
2022-09-02T03:33:44.849Z,32.16
2022-09-02T03:36:33.307Z,32.00
2022-09-02T03:38:59.849Z,31.78
2022-09-02T03:41:26.620Z,31.76
2022-09-02T03:43:53.155Z,31.73
2022-09-02T03:46:20.008Z,31.73
2022-09-02T03:48:46.993Z,31.76
2022-09-02T03:51:13.906Z,31.74
2022-09-02T03:53:40.494Z,31.96
2022-09-02T03:56:11.997Z,31.86
2022-09-02T03:58:40.327Z,31.85
2022-09-02T04:01:08.628Z,31.84
2022-09-02T04:03:35.122Z,32.18
2022-09-02T04:06:01.700Z,32.12
2022-09-02T04:08:28.268Z,32.25
2022-09-02T04:10:56.303Z,32.11
2022-09-02T04:13:23.000Z,32.13
2022-09-02T04:15:49.737Z,32.34
2022-09-02T04:18:17.283Z,32.44
2022-09-02T04:20:44.916Z,32.30
2022-09-02T04:23:12.045Z,32.30
2022-09-02T04:25:43.491Z,32.17
2022-09-02T04:28:10.316Z,32.36
2022-09-02T04:30:41.292Z,32.61
2022-09-02T04:33:07.778Z,32.11
2022-09-02T04:35:36.086Z,32.34
2022-09-02T04:38:03.088Z,32.17
2022-09-02T04:40:29.953Z,32.22
2022-09-02T04:42:56.540Z,32.35
2022-09-02T04:45:26.549Z,32.23
2022-09-02T04:47:55.754Z,32.17
2022-09-02T04:50:22.273Z,31.96
2022-09-02T04:52:48.770Z,31.92
2022-09-02T04:55:15.327Z,32.11
2022-09-02T04:57:42.440Z,32.25
2022-09-02T05:00:10.102Z,32.16
2022-09-02T05:02:36.682Z,32.28
2022-09-02T05:05:03.824Z,32.56
2022-09-02T05:07:31.026Z,32.29
2022-09-02T05:10:00.550Z,32.49
2022-09-02T05:12:28.061Z,32.29
2022-09-02T05:14:57.168Z,32.29
2022-09-02T05:17:23.968Z,32.33
2022-09-02T05:19:50.515Z,32.36
2022-09-02T05:22:17.275Z,32.39
2022-09-02T05:24:44.075Z,32.56
2022-09-02T05:27:10.720Z,32.59
2022-09-02T05:29:37.345Z,32.39
2022-09-02T05:32:04.344Z,32.47
2022-09-02T05:34:30.979Z,32.67
2022-09-02T05:36:57.490Z,32.46
2022-09-02T05:39:25.382Z,32.42
2022-09-02T05:41:51.911Z,32.33
2022-09-02T05:44:18.474Z,32.48
2022-09-02T05:46:48.732Z,32.51
2022-09-02T05:49:18.232Z,32.50
2022-09-02T05:51:51.008Z,32.58
2022-09-02T05:54:25.441Z,32.67
2022-09-02T05:56:54.596Z,32.62
2022-09-02T05:59:22.893Z,32.41
2022-09-02T06:01:50.773Z,32.51
2022-09-02T06:04:17.954Z,32.41
2022-09-02T06:06:44.901Z,32.42
2022-09-02T06:09:16.744Z,32.52
2022-09-02T06:11:46.088Z,32.29
2022-09-02T06:14:14.228Z,32.53
2022-09-02T06:16:42.229Z,32.39
2022-09-02T06:19:08.805Z,32.59
2022-09-02T06:21:36.683Z,32.30
2022-09-02T06:24:07.090Z,32.77
2022-09-02T06:26:34.114Z,32.70
2022-09-02T06:29:00.610Z,32.71
2022-09-02T06:31:27.319Z,32.63
2022-09-02T06:34:01.778Z,32.74
2022-09-02T06:36:31.414Z,32.64
2022-09-02T06:38:59.474Z,32.78
2022-09-02T06:41:29.691Z,32.88
2022-09-02T06:43:58.814Z,32.88
2022-09-02T06:46:29.875Z,32.77
2022-09-02T06:48:56.967Z,32.67
2022-09-02T06:51:33.699Z,32.76
2022-09-02T06:54:00.771Z,32.73
2022-09-02T06:56:27.480Z,32.40
2022-09-02T06:58:54.038Z,32.47
2022-09-02T07:01:24.188Z,32.50
2022-09-02T07:04:09.413Z,32.50
2022-09-02T07:06:38.305Z,32.40
2022-09-02T07:09:06.151Z,32.33
2022-09-02T07:11:33.371Z,32.18
2022-09-02T07:14:01.731Z,32.62
2022-09-02T07:16:34.119Z,32.14
2022-09-02T07:19:01.342Z,32.36
2022-09-02T07:21:29.395Z,32.37
2022-09-02T07:23:58.860Z,32.39
2022-09-02T07:26:25.924Z,32.25
2022-09-02T07:28:52.906Z,32.18
2022-09-02T07:31:19.912Z,32.36
2022-09-02T07:33:50.056Z,32.08
2022-09-02T07:36:17.213Z,32.13
2022-09-02T07:38:43.721Z,32.04
2022-09-02T07:41:10.746Z,32.05
2022-09-02T07:43:38.420Z,32.15
2022-09-02T07:46:06.111Z,31.86
2022-09-02T07:48:33.871Z,31.93
2022-09-02T07:51:01.205Z,31.87
2022-09-02T07:53:28.725Z,31.60
2022-09-02T07:55:55.223Z,31.57
2022-09-02T07:58:22.541Z,31.65
2022-09-02T08:00:50.630Z,31.55
2022-09-02T08:03:17.625Z,31.55
2022-09-02T08:05:47.000Z,31.59
2022-09-02T08:08:15.135Z,31.62
2022-09-02T08:10:42.473Z,31.15
2022-09-02T08:13:10.534Z,31.58
2022-09-02T08:15:37.395Z,31.46
2022-09-02T08:18:05.981Z,30.95
2022-09-02T08:20:33.075Z,31.45
2022-09-02T08:23:10.833Z,30.98
2022-09-02T08:25:38.661Z,30.99
2022-09-02T08:28:05.194Z,31.16
2022-09-02T08:30:31.842Z,30.89
2022-09-02T08:32:58.396Z,31.02
2022-09-02T08:35:24.923Z,30.85
2022-09-02T08:37:51.965Z,30.88
2022-09-02T08:40:24.834Z,30.70
2022-09-02T08:42:56.517Z,30.07
2022-09-02T08:45:32.796Z,30.01
2022-09-02T08:48:12.720Z,30.00
2022-09-02T08:50:42.904Z,30.21
2022-09-02T08:53:32.512Z,30.08
2022-09-02T08:56:01.218Z,30.23
2022-09-02T08:58:33.181Z,30.09
2022-09-02T09:01:07.844Z,29.95
2022-09-02T09:03:47.598Z,30.04
2022-09-02T09:06:30.176Z,30.04
2022-09-02T09:09:13.990Z,30.17
2022-09-02T09:11:52.154Z,30.08
2022-09-02T09:14:18.651Z,30.25
2022-09-02T09:16:59.822Z,29.91
2022-09-02T09:19:50.440Z,29.58
2022-09-02T09:22:21.199Z,29.63
2022-09-02T09:24:50.271Z,29.72
2022-09-02T09:27:19.932Z,30.08
2022-09-02T09:29:49.399Z,29.64
2022-09-02T09:32:29.317Z,29.19
2022-09-02T09:35:07.784Z,28.97
2022-09-02T09:37:50.155Z,28.75
2022-09-02T09:40:25.528Z,28.86
2022-09-02T09:42:57.962Z,29.22
2022-09-02T09:45:27.581Z,29.34
2022-09-02T09:48:19.260Z,28.93
2022-09-02T09:50:47.775Z,28.82
2022-09-02T09:53:24.695Z,28.98
2022-09-02T09:55:55.695Z,28.35
2022-09-02T09:58:37.018Z,28.30
2022-09-02T10:01:24.610Z,27.87
2022-09-02T10:04:00.978Z,28.05
2022-09-02T10:06:33.443Z,28.13
2022-09-02T10:09:20.170Z,27.98
2022-09-02T10:12:02.007Z,27.69
2022-09-02T10:14:47.835Z,27.88
2022-09-02T10:17:40.280Z,27.70
2022-09-02T10:20:22.665Z,27.53
2022-09-02T10:22:59.919Z,27.78
2022-09-02T10:25:34.157Z,27.84
2022-09-02T10:28:18.283Z,27.71
2022-09-02T10:30:59.819Z,27.64
2022-09-02T10:34:07.817Z,27.65
2022-09-02T10:36:52.462Z,27.98
2022-09-02T10:39:25.446Z,27.13
2022-09-02T10:41:58.533Z,26.79
2022-09-02T10:44:31.342Z,26.93
2022-09-02T10:47:14.883Z,26.89
2022-09-02T10:50:03.097Z,26.07
2022-09-02T10:52:35.607Z,27.44
2022-09-02T10:55:25.075Z,26.07
2022-09-02T10:58:01.084Z,25.47
2022-09-02T11:00:31.060Z,25.81
2022-09-02T11:03:12.858Z,25.25
2022-09-02T11:06:04.916Z,25.39
2022-09-02T11:08:38.575Z,25.23
2022-09-02T11:11:21.401Z,25.50
2022-09-02T11:14:02.242Z,25.46
2022-09-02T11:16:46.020Z,25.38
2022-09-02T11:19:32.868Z,25.48
2022-09-02T11:22:11.659Z,25.04
2022-09-02T11:25:16.593Z,25.55
2022-09-02T11:27:53.357Z,25.00
2022-09-02T11:30:22.326Z,24.89
2022-09-02T11:33:40.174Z,24.74
2022-09-02T11:36:07.005Z,25.40
2022-09-02T11:38:42.790Z,23.41
2022-09-02T11:41:34.116Z,22.95
2022-09-02T11:44:31.492Z,23.61
2022-09-02T11:47:01.237Z,22.76
2022-09-02T11:49:40.038Z,22.69
2022-09-02T11:55:06.299Z,21.64
2022-09-02T11:57:33.136Z,22.18
2022-09-02T11:59:59.564Z,21.93
2022-09-02T12:02:51.601Z,21.94
2022-09-02T12:05:30.313Z,21.51
2022-09-02T12:08:34.427Z,22.05
2022-09-02T12:11:04.831Z,21.58
2022-09-02T12:16:21.130Z,21.23
2022-09-02T12:18:54.120Z,20.51
2022-09-02T12:21:23.496Z,20.53
2022-09-02T12:23:55.920Z,20.44
2022-09-02T12:26:28.474Z,20.44
2022-09-02T12:29:10.976Z,20.39
2022-09-02T12:31:41.120Z,20.27
2022-09-02T12:34:25.972Z,20.51
2022-09-02T12:36:52.413Z,19.79
2022-09-02T12:39:24.965Z,19.73
2022-09-02T12:42:01.356Z,20.20
2022-09-02T12:44:52.778Z,20.30
2022-09-02T12:47:53.428Z,20.68
2022-09-02T12:50:53.760Z,20.42
2022-09-02T12:53:23.352Z,19.81
2022-09-02T12:56:04.333Z,20.15
2022-09-02T12:58:53.693Z,19.86
2022-09-02T13:01:38.923Z,21.17
2022-09-02T13:04:05.535Z,20.08
2022-09-02T13:06:53.838Z,19.76
2022-09-02T13:09:49.318Z,20.38
2022-09-02T13:12:40.435Z,19.93
2022-09-02T13:15:23.943Z,19.42
2022-09-02T13:18:18.274Z,19.92
2022-09-02T13:20:56.050Z,19.32
2022-09-02T13:23:49.006Z,19.95
2022-09-02T13:26:53.754Z,19.83
2022-09-02T13:30:01.105Z,19.84
2022-09-02T13:32:30.275Z,19.38
2022-09-02T13:35:02.196Z,19.60
2022-09-02T13:37:52.873Z,19.53
2022-09-02T13:40:36.113Z,19.47
2022-09-02T13:43:16.093Z,19.62
2022-09-02T13:45:43.917Z,19.75
2022-09-02T13:48:20.693Z,19.85
2022-09-02T13:50:52.257Z,19.51
2022-09-02T13:54:05.016Z,19.38
2022-09-02T13:56:15.468Z,19.40
2022-09-02T13:58:47.301Z,19.57
2022-09-02T14:01:32.786Z,19.70
2022-09-02T14:06:38.847Z,19.43
2022-09-02T14:09:08.543Z,19.26
2022-09-02T14:11:48.064Z,19.32
2022-09-02T14:14:16.419Z,19.33
2022-09-02T14:16:42.901Z,20.53
2022-09-02T14:19:10.953Z,19.45
2022-09-02T14:21:45.775Z,19.34
2022-09-02T14:24:15.073Z,19.61
2022-09-02T14:26:44.090Z,19.23
2022-09-02T14:29:16.025Z,18.95
2022-09-02T14:31:43.156Z,19.34
2022-09-02T14:34:39.243Z,19.37
2022-09-02T14:37:20.923Z,19.11
2022-09-02T14:39:54.832Z,19.32
2022-09-02T14:42:21.513Z,18.97
2022-09-02T14:44:48.089Z,19.17
2022-09-02T14:47:16.722Z,19.18
2022-09-02T14:49:53.458Z,18.87
2022-09-02T14:52:35.565Z,19.42
2022-09-02T14:55:03.403Z,19.09
2022-09-02T14:57:32.651Z,18.68
2022-09-02T15:00:02.185Z,20.15
2022-09-02T15:02:28.606Z,20.35
2022-09-02T15:04:56.591Z,20.38
2022-09-02T15:07:24.455Z,20.13
2022-09-02T15:09:51.401Z,20.44
2022-09-02T15:12:35.214Z,19.91
2022-09-02T15:15:01.797Z,20.20
2022-09-02T15:17:29.488Z,19.90
2022-09-02T15:19:56.654Z,19.86
2022-09-02T15:22:23.854Z,19.93
2022-09-02T15:24:51.549Z,20.48
2022-09-02T15:27:21.474Z,19.89
2022-09-02T15:29:49.036Z,19.79
2022-09-02T15:32:15.644Z,19.79
2022-09-02T15:34:42.199Z,20.12
2022-09-02T15:37:12.677Z,19.93
2022-09-02T15:39:40.277Z,19.81
2022-09-02T15:42:07.142Z,19.54
2022-09-02T15:44:33.662Z,19.98
2022-09-02T15:47:00.178Z,19.75
2022-09-02T15:49:27.469Z,20.19
2022-09-02T15:51:55.066Z,19.90
2022-09-02T15:54:23.479Z,20.10
2022-09-02T15:56:55.163Z,19.86
2022-09-02T15:59:22.197Z,19.81
2022-09-02T16:01:58.756Z,19.57
2022-09-02T16:04:27.187Z,19.64
2022-09-02T16:06:54.018Z,19.84
2022-09-02T16:09:20.849Z,19.52
2022-09-02T16:11:50.357Z,19.89
2022-09-02T16:14:20.547Z,19.85
2022-09-02T16:16:48.257Z,20.17
2022-09-02T16:19:14.813Z,19.63
2022-09-02T16:21:41.345Z,19.99
2022-09-02T16:24:08.897Z,20.34
2022-09-02T16:26:40.142Z,19.87
2022-09-02T16:29:13.723Z,19.98
2022-09-02T16:31:42.076Z,19.89
2022-09-02T16:34:12.057Z,19.74
2022-09-02T16:36:44.370Z,19.69
2022-09-02T16:39:12.970Z,19.84
2022-09-02T16:41:44.415Z,19.89
2022-09-02T16:44:13.915Z,19.32
2022-09-02T16:46:43.031Z,19.38
2022-09-02T16:49:11.284Z,19.61
2022-09-02T16:51:40.738Z,19.29
2022-09-02T16:54:09.417Z,19.43
2022-09-02T16:56:44.180Z,19.38
2022-09-02T16:59:12.759Z,19.16
2022-09-02T17:01:40.535Z,19.27
2022-09-02T17:04:08.686Z,19.55
2022-09-02T17:06:39.917Z,19.24
2022-09-02T17:09:09.055Z,19.53
2022-09-02T17:11:39.634Z,19.67
2022-09-02T17:14:11.914Z,19.83
2022-09-02T17:16:47.569Z,19.80
2022-09-02T17:19:20.995Z,19.92
2022-09-02T17:21:50.790Z,19.79
2022-09-02T17:24:19.205Z,20.01
2022-09-02T17:26:46.796Z,20.26
2022-09-02T17:29:37.952Z,19.80
2022-09-02T17:32:03.629Z,20.13
2022-09-02T17:34:33.256Z,20.29
2022-09-02T17:36:59.798Z,20.33
2022-09-02T17:39:26.831Z,20.50
2022-09-02T17:41:57.443Z,20.59
2022-09-02T17:44:34.955Z,20.49
2022-09-02T17:47:07.663Z,20.67
2022-09-02T17:49:38.076Z,20.58
2022-09-02T17:52:06.838Z,20.83
2022-09-02T17:54:34.636Z,20.81
2022-09-02T17:57:19.758Z,21.01
2022-09-02T18:00:07.709Z,21.02
2022-09-02T18:02:43.891Z,21.08
2022-09-02T18:05:16.580Z,21.20
2022-09-02T18:07:49.853Z,21.09
2022-09-02T18:10:17.815Z,20.88
2022-09-02T18:12:44.430Z,20.88
2022-09-02T18:15:17.099Z,21.15
2022-09-02T18:17:48.551Z,21.17
2022-09-02T18:20:47.295Z,21.59
2022-09-02T18:23:21.028Z,21.30
2022-09-02T18:26:24.276Z,21.40
2022-09-02T18:29:22.344Z,21.36
2022-09-02T18:32:26.208Z,21.40
2022-09-02T18:35:17.793Z,21.41
2022-09-02T18:38:04.293Z,21.80
2022-09-02T18:40:45.681Z,21.59
2022-09-02T18:43:31.146Z,21.44
2022-09-02T18:46:01.032Z,21.28
2022-09-02T18:48:38.584Z,21.77
2022-09-02T18:51:31.402Z,21.59
2022-09-02T18:54:08.879Z,21.80
2022-09-02T18:56:39.142Z,21.63
2022-09-02T18:59:11.557Z,21.74
2022-09-02T19:01:46.114Z,22.27
2022-09-02T19:04:14.367Z,21.80
2022-09-02T19:06:41.525Z,21.87
2022-09-02T19:09:12.936Z,22.27
2022-09-02T19:11:40.155Z,22.20
2022-09-02T19:14:06.576Z,22.37
2022-09-02T19:16:36.157Z,22.15
2022-09-02T19:19:04.247Z,22.33
2022-09-02T19:21:39.212Z,22.49
2022-09-02T19:24:10.173Z,22.65
2022-09-02T19:26:38.254Z,22.63
2022-09-02T19:29:12.121Z,22.86
2022-09-02T19:31:40.881Z,22.85
2022-09-02T19:34:08.282Z,22.89
2022-09-02T19:36:39.019Z,22.55
2022-09-02T19:39:05.556Z,22.88
2022-09-02T19:41:32.070Z,22.84
2022-09-02T19:44:00.054Z,22.78
2022-09-02T19:49:13.428Z,22.72
2022-09-02T19:51:41.036Z,23.31
2022-09-02T19:54:08.553Z,22.96
2022-09-02T19:56:35.116Z,23.29
2022-09-02T19:59:01.947Z,23.20
2022-09-02T20:01:28.508Z,23.44
2022-09-02T20:03:55.032Z,23.40
2022-09-02T20:06:21.526Z,23.35
2022-09-02T20:08:48.025Z,23.78
2022-09-02T20:11:15.078Z,23.55
2022-09-02T20:13:41.990Z,23.43
2022-09-02T20:16:16.929Z,24.06
2022-09-02T20:18:48.321Z,23.49
2022-09-02T20:21:30.907Z,24.26
2022-09-02T20:24:08.192Z,24.33
2022-09-02T20:27:11.076Z,24.32
2022-09-02T20:29:46.597Z,23.90
2022-09-02T20:32:30.344Z,24.23
2022-09-02T20:35:25.810Z,24.40
2022-09-02T20:38:20.257Z,24.55
2022-09-02T20:41:18.706Z,24.74
2022-09-02T20:44:06.883Z,24.86
2022-09-02T20:46:54.900Z,24.67
2022-09-02T20:49:30.871Z,24.65
2022-09-02T20:52:16.188Z,24.94
2022-09-02T20:54:58.387Z,24.94
2022-09-02T20:57:46.271Z,25.08
2022-09-02T21:00:20.428Z,25.34
2022-09-02T21:03:05.279Z,25.38
2022-09-02T21:05:38.565Z,25.60
2022-09-02T21:08:08.535Z,25.59
2022-09-02T21:10:43.044Z,25.61
2022-09-02T21:13:18.092Z,25.82
2022-09-02T21:16:00.277Z,25.66
2022-09-02T21:18:59.213Z,25.97
2022-09-02T21:21:36.960Z,25.88
2022-09-02T21:24:14.154Z,25.89
2022-09-02T21:26:49.173Z,25.61
2022-09-02T21:29:18.848Z,25.73
2022-09-02T21:31:52.533Z,26.11
2022-09-02T21:34:33.583Z,26.14
2022-09-02T21:37:03.808Z,25.83
2022-09-02T21:39:35.249Z,25.92
2022-09-02T21:42:11.125Z,26.19
2022-09-02T21:44:43.576Z,26.05
2022-09-02T21:47:19.441Z,26.33
2022-09-02T21:49:49.457Z,25.97
2022-09-02T21:52:52.978Z,26.01
2022-09-02T21:55:35.422Z,26.33
2022-09-02T21:58:16.626Z,25.94
2022-09-02T22:00:48.750Z,26.28
2022-09-02T22:03:37.082Z,26.09
2022-09-02T22:06:23.740Z,25.81
2022-09-02T22:09:04.205Z,26.32
2022-09-02T22:11:35.711Z,26.13
2022-09-02T22:14:16.334Z,26.40
2022-09-02T22:16:54.554Z,26.48
2022-09-02T22:19:30.324Z,26.39
2022-09-02T22:22:06.175Z,26.56
2022-09-02T22:24:37.104Z,26.43
2022-09-02T22:27:15.956Z,26.90
2022-09-02T22:30:11.538Z,26.84
2022-09-02T22:32:43.100Z,26.53
2022-09-02T22:35:34.395Z,26.85
2022-09-02T22:38:30.824Z,26.74
2022-09-02T22:41:20.148Z,26.92
2022-09-02T22:43:52.217Z,27.12
2022-09-02T22:46:46.458Z,27.11
2022-09-02T22:49:49.271Z,27.03
2022-09-02T22:52:40.228Z,27.02
2022-09-02T22:55:13.102Z,27.07
2022-09-02T22:57:52.223Z,27.30
2022-09-02T23:00:20.043Z,27.14
2022-09-02T23:02:53.308Z,27.25
2022-09-02T23:06:05.287Z,27.40
2022-09-02T23:08:36.957Z,27.29
2022-09-02T23:11:16.592Z,27.70
2022-09-02T23:14:26.415Z,27.48
2022-09-02T23:17:18.238Z,27.46
2022-09-02T23:20:05.728Z,27.76
2022-09-02T23:23:04.336Z,27.46
2022-09-02T23:25:34.656Z,27.69
2022-09-02T23:28:19.227Z,27.78
2022-09-02T23:31:07.305Z,27.77
2022-09-02T23:33:49.422Z,28.16
2022-09-02T23:36:36.008Z,27.96
2022-09-02T23:39:11.649Z,28.14
2022-09-02T23:41:41.805Z,27.84
2022-09-02T23:44:09.860Z,28.06
2022-09-02T23:47:05.564Z,28.05
2022-09-02T23:50:03.644Z,27.97
2022-09-02T23:52:59.888Z,28.17
2022-09-02T23:55:35.533Z,28.17
2022-09-02T23:58:20.867Z,28.17
